createdAt,value
2023-04-26T00:00:57.074Z,12.15
2023-04-26T00:03:27.983Z,14.18
2023-04-26T00:05:58.619Z,13.55
2023-04-26T00:08:32.087Z,14.32
2023-04-26T00:11:02.521Z,11.98
2023-04-26T00:13:33.196Z,10.32
2023-04-26T00:16:03.695Z,14.85
2023-04-26T00:18:34.785Z,12.05
2023-04-26T00:21:05.213Z,11.60
2023-04-26T00:23:39.457Z,13.80
2023-04-26T00:26:09.890Z,15.85
2023-04-26T00:28:40.423Z,11.18
2023-04-26T00:31:10.915Z,15.60
2023-04-26T00:33:41.455Z,10.23
2023-04-26T00:36:12.175Z,10.80
2023-04-26T00:38:45.341Z,11.75
2023-04-26T00:41:15.929Z,13.35
2023-04-26T00:43:46.805Z,12.02
2023-04-26T00:46:17.551Z,14.38
2023-04-26T00:48:48.308Z,12.77
2023-04-26T00:51:19.151Z,15.38
2023-04-26T00:53:52.858Z,12.55
2023-04-26T00:56:25.259Z,15.32
2023-04-26T00:58:55.668Z,15.23
2023-04-26T01:01:26.421Z,9.98
2023-04-26T01:03:57.196Z,11.20
2023-04-26T01:06:27.924Z,16.33
2023-04-26T01:09:03.867Z,13.15
2023-04-26T01:11:35.150Z,15.93
2023-04-26T01:14:07.038Z,12.82
2023-04-26T01:16:39.554Z,14.63
2023-04-26T01:19:15.532Z,12.48
2023-04-26T01:21:46.654Z,11.38
2023-04-26T01:24:20.409Z,13.15
2023-04-26T01:26:51.142Z,12.15
2023-04-26T01:29:24.408Z,18.25
2023-04-26T01:31:54.887Z,11.77
2023-04-26T01:34:25.337Z,14.32
2023-04-26T01:36:55.787Z,12.55
2023-04-26T01:39:28.939Z,14.25
2023-04-26T01:42:03.070Z,11.60
2023-04-26T01:44:35.997Z,14.48
2023-04-26T01:47:06.860Z,13.13
2023-04-26T01:49:37.487Z,14.82
2023-04-26T01:52:08.167Z,15.80
2023-04-26T01:54:41.513Z,13.10
2023-04-26T01:57:12.058Z,13.18
2023-04-26T01:59:42.560Z,16.23
2023-04-26T02:02:13.047Z,11.93
2023-04-26T02:04:43.507Z,11.93
2023-04-26T02:07:14.192Z,13.32
2023-04-26T02:09:52.853Z,13.63
2023-04-26T02:12:25.475Z,14.07
2023-04-26T02:14:56.664Z,18.38
2023-04-26T02:17:29.462Z,14.57
2023-04-26T02:20:00.218Z,13.32
2023-04-26T02:22:32.260Z,14.32
2023-04-26T02:25:05.779Z,11.63
2023-04-26T02:27:37.231Z,15.07
2023-04-26T02:30:09.628Z,24.55
2023-04-26T02:32:40.432Z,10.77
2023-04-26T02:35:12.502Z,15.05
2023-04-26T02:37:42.871Z,14.55
2023-04-26T02:40:16.238Z,12.15
2023-04-26T02:42:46.701Z,14.18
2023-04-26T02:45:17.452Z,15.30
2023-04-26T02:47:51.055Z,17.90
2023-04-26T02:50:21.849Z,13.95
2023-04-26T02:52:53.577Z,14.75
2023-04-26T02:55:26.897Z,11.63
2023-04-26T02:57:57.708Z,18.70
2023-04-26T03:00:28.777Z,10.75
2023-04-26T03:02:59.922Z,12.02
2023-04-26T03:05:30.824Z,13.90
2023-04-26T03:08:01.949Z,16.08
2023-04-26T03:10:35.752Z,12.32
2023-04-26T03:13:07.400Z,15.48
2023-04-26T03:15:38.768Z,11.30
2023-04-26T03:18:09.445Z,12.50
2023-04-26T03:20:40.256Z,13.32
2023-04-26T03:23:10.919Z,15.60
2023-04-26T03:25:43.943Z,21.08
2023-04-26T03:28:14.382Z,12.95
2023-04-26T03:30:45.945Z,14.57
2023-04-26T03:33:16.923Z,16.38
2023-04-26T03:35:47.841Z,10.90
2023-04-26T03:38:18.264Z,14.05
2023-04-26T03:40:51.919Z,14.95
2023-04-26T03:43:22.268Z,15.38
2023-04-26T03:45:53.445Z,12.95
2023-04-26T03:48:23.901Z,15.85
2023-04-26T03:50:54.613Z,12.95
2023-04-26T03:53:25.012Z,16.85
2023-04-26T03:55:58.764Z,15.93
2023-04-26T03:58:29.256Z,14.88
2023-04-26T04:01:00.400Z,17.42
2023-04-26T04:03:31.052Z,13.63
2023-04-26T04:06:01.982Z,15.23
2023-04-26T04:08:32.973Z,14.98
2023-04-26T04:11:06.406Z,18.23
2023-04-26T04:13:40.255Z,17.73
2023-04-26T04:16:10.815Z,15.30
2023-04-26T04:18:41.240Z,16.85
2023-04-26T04:21:12.280Z,15.57
2023-04-26T04:23:43.650Z,14.18
2023-04-26T04:26:19.276Z,18.83
2023-04-26T04:28:50.053Z,17.98
2023-04-26T04:31:21.269Z,18.48
2023-04-26T04:33:51.769Z,17.10
2023-04-26T04:36:22.473Z,17.58
2023-04-26T04:38:53.808Z,24.00
2023-04-26T04:41:28.091Z,23.38
2023-04-26T04:43:58.653Z,17.13
2023-04-26T04:46:29.402Z,15.65
2023-04-26T04:48:59.988Z,15.55
2023-04-26T04:51:30.594Z,17.02
2023-04-26T04:54:01.191Z,15.23
2023-04-26T04:56:34.199Z,18.48
2023-04-26T04:59:04.856Z,19.38
2023-04-26T05:01:37.229Z,16.63
2023-04-26T05:06:41.910Z,18.27
2023-04-26T05:09:12.816Z,15.38
2023-04-26T05:11:47.025Z,21.48
2023-04-26T05:14:17.623Z,25.45
2023-04-26T05:16:48.310Z,23.35
2023-04-26T05:19:18.863Z,18.90
2023-04-26T05:21:49.676Z,19.27
2023-04-26T05:24:20.798Z,21.13
2023-04-26T05:26:53.812Z,22.58
2023-04-26T05:29:35.784Z,21.25
2023-04-26T05:32:24.833Z,21.13
2023-04-26T05:35:13.896Z,20.13
2023-04-26T05:37:44.354Z,22.95
2023-04-26T05:40:17.280Z,21.95
2023-04-26T05:42:50.948Z,26.63
2023-04-26T05:45:21.544Z,25.35
2023-04-26T05:47:54.028Z,23.42
2023-04-26T05:50:24.653Z,21.80
2023-04-26T05:52:55.002Z,26.63
2023-04-26T05:55:25.810Z,24.00
2023-04-26T05:57:59.062Z,33.15
2023-04-26T06:00:29.787Z,27.08
2023-04-26T06:03:00.821Z,24.67
2023-04-26T06:05:31.641Z,25.40
2023-04-26T06:08:02.555Z,19.90
2023-04-26T06:10:33.128Z,23.63
2023-04-26T06:13:06.318Z,24.85
2023-04-26T06:15:39.636Z,22.70
2023-04-26T06:18:10.118Z,24.25
2023-04-26T06:20:40.598Z,22.58
2023-04-26T06:23:11.373Z,19.65
2023-04-26T06:25:44.888Z,22.50
2023-04-26T06:28:18.556Z,22.13
2023-04-26T06:30:50.377Z,20.15
2023-04-26T06:33:21.264Z,17.65
2023-04-26T06:35:51.731Z,22.88
2023-04-26T06:38:22.670Z,17.63
2023-04-26T06:40:54.209Z,16.25
2023-04-26T06:43:28.030Z,18.75
2023-04-26T06:48:40.912Z,16.80
2023-04-26T06:51:12.061Z,18.25
2023-04-26T06:53:42.472Z,15.70
2023-04-26T06:56:13.038Z,22.25
2023-04-26T06:59:03.393Z,15.38
2023-04-26T07:01:36.037Z,11.25
2023-04-26T07:04:10.192Z,15.57
2023-04-26T07:06:41.557Z,15.75
2023-04-26T07:09:12.544Z,13.55
2023-04-26T07:11:43.134Z,13.90
2023-04-26T07:14:17.589Z,11.30
2023-04-26T07:16:48.167Z,13.48
2023-04-26T07:19:19.428Z,13.18
2023-04-26T07:21:49.940Z,13.00
2023-04-26T07:24:20.507Z,16.80
2023-04-26T07:26:50.949Z,14.25
2023-04-26T07:29:24.192Z,13.60
2023-04-26T07:31:54.667Z,14.10
2023-04-26T07:34:25.053Z,11.90
2023-04-26T07:36:56.431Z,16.50
2023-04-26T07:39:27.016Z,11.82
2023-04-26T07:41:57.997Z,11.05
2023-04-26T07:44:31.216Z,14.13
2023-04-26T07:47:01.639Z,12.80
2023-04-26T07:49:32.309Z,13.93
2023-04-26T07:52:02.721Z,12.98
2023-04-26T07:54:33.209Z,11.27
2023-04-26T07:57:03.843Z,14.82
2023-04-26T07:59:36.948Z,12.18
2023-04-26T08:02:07.499Z,14.07
2023-04-26T08:04:38.289Z,10.98
2023-04-26T08:07:08.958Z,13.60
2023-04-26T08:09:39.522Z,13.48
2023-04-26T08:12:11.203Z,16.95
2023-04-26T08:14:44.540Z,11.02
2023-04-26T08:17:15.308Z,11.63
2023-04-26T08:19:45.787Z,11.20
2023-04-26T08:22:16.354Z,14.18
2023-04-26T08:24:51.487Z,13.65
2023-04-26T08:27:21.917Z,11.52
2023-04-26T08:29:55.026Z,11.88
2023-04-26T08:32:25.623Z,13.60
2023-04-26T08:34:56.195Z,14.13
2023-04-26T08:37:28.743Z,13.63
2023-04-26T08:40:00.284Z,11.35
2023-04-26T08:42:31.840Z,18.52
2023-04-26T08:45:07.761Z,13.88
2023-04-26T08:47:46.686Z,15.52
2023-04-26T08:50:18.972Z,10.95
2023-04-26T08:52:53.079Z,9.75
2023-04-26T08:55:24.195Z,14.20
2023-04-26T08:57:54.970Z,20.30
2023-04-26T09:00:28.535Z,13.48
2023-04-26T09:02:59.416Z,24.50
2023-04-26T09:05:30.126Z,13.90
2023-04-26T09:08:05.676Z,14.30
2023-04-26T09:10:36.097Z,12.25
2023-04-26T09:13:06.758Z,11.18
2023-04-26T09:15:40.415Z,11.20
2023-04-26T09:18:21.834Z,11.95
2023-04-26T09:21:08.160Z,11.10
2023-04-26T09:23:39.123Z,15.35
2023-04-26T09:26:23.270Z,8.43
2023-04-26T09:28:54.356Z,11.02
2023-04-26T09:31:42.504Z,11.02
2023-04-26T09:34:14.408Z,13.70
2023-04-26T09:36:51.641Z,14.75
2023-04-26T09:39:40.655Z,12.35
2023-04-26T09:42:21.237Z,11.45
2023-04-26T09:44:54.091Z,12.85
2023-04-26T09:47:27.135Z,10.73
2023-04-26T09:49:57.667Z,10.98
2023-04-26T09:52:29.274Z,7.43
2023-04-26T09:54:59.620Z,11.63
2023-04-26T09:57:30.192Z,11.70
2023-04-26T10:00:01.107Z,8.77
2023-04-26T10:02:34.865Z,14.93
2023-04-26T10:05:07.351Z,10.07
2023-04-26T10:07:38.199Z,12.52
2023-04-26T10:10:11.614Z,13.77
2023-04-26T10:12:44.022Z,7.97
2023-04-26T10:15:16.215Z,11.43
2023-04-26T10:17:51.945Z,8.95
2023-04-26T10:20:25.741Z,9.90
2023-04-26T10:23:01.485Z,11.70
2023-04-26T10:25:43.415Z,16.45
2023-04-26T10:28:13.908Z,14.70
2023-04-26T10:31:00.491Z,13.13
2023-04-26T10:33:33.673Z,12.63
2023-04-26T10:36:15.798Z,13.60
2023-04-26T10:39:22.040Z,13.25
2023-04-26T10:41:52.485Z,13.15
2023-04-26T10:44:42.953Z,14.68
2023-04-26T10:47:31.626Z,14.77
2023-04-26T10:50:10.742Z,14.02
2023-04-26T10:53:08.489Z,8.52
2023-04-26T10:55:43.109Z,11.25
2023-04-26T10:58:32.570Z,9.68
2023-04-26T11:01:11.789Z,10.23
2023-04-26T11:03:44.716Z,11.52
2023-04-26T11:06:19.162Z,10.07
2023-04-26T11:08:51.564Z,10.23
2023-04-26T11:11:22.440Z,8.15
2023-04-26T11:13:52.861Z,9.38
2023-04-26T11:16:26.984Z,7.03
2023-04-26T11:18:58.481Z,16.40
2023-04-26T11:21:32.859Z,9.82
2023-04-26T11:24:03.216Z,14.60
2023-04-26T11:26:37.259Z,7.15
2023-04-26T11:29:13.550Z,7.67
2023-04-26T11:31:44.377Z,8.77
2023-04-26T11:34:14.813Z,8.80
2023-04-26T11:36:48.404Z,11.32
2023-04-26T11:39:19.404Z,9.55
2023-04-26T11:41:49.985Z,15.20
2023-04-26T11:44:23.907Z,6.95
2023-04-26T11:46:54.581Z,10.55
2023-04-26T11:49:25.278Z,10.18
2023-04-26T11:51:58.700Z,8.60
2023-04-26T11:54:33.039Z,7.55
2023-04-26T11:57:03.919Z,13.05
2023-04-26T11:59:34.734Z,8.45
2023-04-26T12:02:10.413Z,12.55
2023-04-26T12:04:42.470Z,10.13
2023-04-26T12:07:15.812Z,7.50
2023-04-26T12:09:47.138Z,10.90
2023-04-26T12:12:18.366Z,9.18
2023-04-26T12:14:50.613Z,10.85
2023-04-26T12:17:21.640Z,9.25
2023-04-26T12:19:53.833Z,13.32
2023-04-26T12:22:27.174Z,10.02
2023-04-26T12:25:08.682Z,6.50
2023-04-26T12:27:39.803Z,10.80
2023-04-26T12:30:13.157Z,10.20
2023-04-26T12:32:43.530Z,11.52
2023-04-26T12:35:14.076Z,6.97
2023-04-26T12:37:48.155Z,8.52
2023-04-26T12:40:20.062Z,7.80
2023-04-26T12:42:52.102Z,8.43
2023-04-26T12:45:23.252Z,9.93
2023-04-26T12:47:53.960Z,12.88
2023-04-26T12:50:24.943Z,10.52
2023-04-26T12:52:58.210Z,7.93
2023-04-26T12:55:31.229Z,10.23
2023-04-26T12:58:02.891Z,7.53
2023-04-26T13:00:33.422Z,6.28
2023-04-26T13:03:04.147Z,8.88
2023-04-26T13:05:34.861Z,10.00
2023-04-26T13:08:07.956Z,8.57
2023-04-26T13:10:38.606Z,9.73
2023-04-26T13:13:09.055Z,10.38
2023-04-26T13:15:39.500Z,10.65
2023-04-26T13:18:09.974Z,11.32
2023-04-26T13:20:40.886Z,5.68
2023-04-26T13:23:14.407Z,8.48
2023-04-26T13:25:45.052Z,9.63
2023-04-26T13:28:15.888Z,9.10
2023-04-26T13:30:46.628Z,8.05
2023-04-26T13:33:17.376Z,10.40
2023-04-26T13:35:47.907Z,7.97
2023-04-26T13:38:21.213Z,10.10
2023-04-26T13:40:51.609Z,12.43
2023-04-26T13:43:22.141Z,7.97
2023-04-26T13:45:52.588Z,5.32
2023-04-26T13:48:23.143Z,9.65
2023-04-26T13:50:53.750Z,6.55
2023-04-26T13:53:26.808Z,12.38
2023-04-26T13:55:57.278Z,8.70
2023-04-26T13:58:27.805Z,8.88
2023-04-26T14:00:58.188Z,9.57
2023-04-26T14:03:29.698Z,8.48
2023-04-26T14:06:00.738Z,9.43
2023-04-26T14:08:33.675Z,11.77
2023-04-26T14:11:04.251Z,12.13
2023-04-26T14:13:34.660Z,9.00
2023-04-26T14:16:05.355Z,6.30
2023-04-26T14:18:35.930Z,8.90
2023-04-26T14:21:06.617Z,7.95
2023-04-26T14:23:39.648Z,12.02
2023-04-26T14:26:10.142Z,8.88
2023-04-26T14:28:41.353Z,7.50
2023-04-26T14:31:12.943Z,5.63
2023-04-26T14:33:43.383Z,10.05
2023-04-26T14:36:14.026Z,7.50
2023-04-26T14:38:48.448Z,9.48
2023-04-26T14:41:19.334Z,6.28
2023-04-26T14:43:50.761Z,6.97
2023-04-26T14:46:21.152Z,11.60
2023-04-26T14:48:51.636Z,8.32
2023-04-26T14:51:22.146Z,11.50
2023-04-26T14:53:55.416Z,7.45
2023-04-26T14:56:25.865Z,8.30
2023-04-26T14:58:56.517Z,8.65
2023-04-26T15:01:27.082Z,6.32
2023-04-26T15:04:00.300Z,7.95
2023-04-26T15:06:32.291Z,8.82
2023-04-26T15:09:08.849Z,7.30
2023-04-26T15:11:39.518Z,8.63
2023-04-26T15:14:10.166Z,7.88
2023-04-26T15:16:40.938Z,8.57
2023-04-26T15:19:11.603Z,10.85
2023-04-26T15:21:42.498Z,7.80
2023-04-26T15:24:15.605Z,6.18
2023-04-26T15:26:45.959Z,8.85
2023-04-26T15:29:16.471Z,11.45
2023-04-26T15:31:46.833Z,9.27
2023-04-26T15:34:17.318Z,8.90
2023-04-26T15:36:47.679Z,10.80
2023-04-26T15:39:20.906Z,12.13
2023-04-26T15:41:51.221Z,10.63
2023-04-26T15:44:21.921Z,10.10
2023-04-26T15:46:52.343Z,9.48
2023-04-26T15:49:22.981Z,6.03
2023-04-26T15:51:53.765Z,7.63
2023-04-26T15:54:26.935Z,8.15
2023-04-26T15:56:58.354Z,10.10
2023-04-26T15:59:30.886Z,4.95
2023-04-26T16:02:02.056Z,7.95
2023-04-26T16:04:33.058Z,8.18
2023-04-26T16:07:03.760Z,6.85
2023-04-26T16:09:37.327Z,7.38
2023-04-26T16:12:08.579Z,6.78
2023-04-26T16:14:39.648Z,7.50
2023-04-26T16:17:09.965Z,7.75
2023-04-26T16:19:40.592Z,6.57
2023-04-26T16:22:10.975Z,5.75
2023-04-26T16:24:44.067Z,9.52
2023-04-26T16:27:14.499Z,7.50
2023-04-26T16:29:44.889Z,6.40
2023-04-26T16:32:15.361Z,10.18
2023-04-26T16:34:45.831Z,8.38
2023-04-26T16:37:16.266Z,9.35
2023-04-26T16:39:49.483Z,5.97
2023-04-26T16:42:19.932Z,6.97
2023-04-26T16:44:50.445Z,15.48
2023-04-26T16:47:21.047Z,9.30
2023-04-26T16:49:51.530Z,5.75
2023-04-26T16:52:22.170Z,8.93
2023-04-26T16:54:55.273Z,9.90
2023-04-26T16:57:25.919Z,7.55
2023-04-26T16:59:56.654Z,6.97
2023-04-26T17:02:27.367Z,9.38
2023-04-26T17:04:58.125Z,9.45
2023-04-26T17:07:28.919Z,10.20
2023-04-26T17:10:02.135Z,8.75
2023-04-26T17:12:32.666Z,6.07
2023-04-26T17:15:04.608Z,6.72
2023-04-26T17:17:35.856Z,8.70
2023-04-26T17:20:10.160Z,7.43
2023-04-26T17:22:41.736Z,6.07
2023-04-26T17:25:15.153Z,7.35
2023-04-26T17:27:45.635Z,4.75
2023-04-26T17:30:17.369Z,8.65
2023-04-26T17:32:48.207Z,9.13
2023-04-26T17:35:19.021Z,5.82
2023-04-26T17:37:50.545Z,6.07
2023-04-26T17:40:24.025Z,6.93
2023-04-26T17:43:03.713Z,5.35
2023-04-26T17:45:34.360Z,7.80
2023-04-26T17:48:04.889Z,7.68
2023-04-26T17:50:35.425Z,6.30
2023-04-26T17:53:06.306Z,5.68
2023-04-26T17:55:39.434Z,11.30
2023-04-26T17:58:09.804Z,11.95
2023-04-26T18:00:40.275Z,11.60
2023-04-26T18:03:12.394Z,12.63
2023-04-26T18:05:43.036Z,12.40
2023-04-26T18:08:13.608Z,10.20
2023-04-26T18:10:48.482Z,7.93
2023-04-26T18:13:19.453Z,5.53
2023-04-26T18:15:51.450Z,5.75
2023-04-26T18:18:21.948Z,12.35
2023-04-26T18:20:52.486Z,8.95
2023-04-26T18:23:22.940Z,7.25
2023-04-26T18:25:56.170Z,5.65
2023-04-26T18:28:26.913Z,5.25
2023-04-26T18:31:00.316Z,8.35
2023-04-26T18:33:32.145Z,5.65
2023-04-26T18:36:03.013Z,8.73
2023-04-26T18:38:33.951Z,7.75
2023-04-26T18:41:07.080Z,6.93
2023-04-26T18:43:37.712Z,7.90
2023-04-26T18:46:08.411Z,9.18
2023-04-26T18:48:38.911Z,10.25
2023-04-26T18:51:09.542Z,14.73
2023-04-26T18:53:39.952Z,8.52
2023-04-26T18:56:13.145Z,8.90
2023-04-26T18:58:43.653Z,5.13
2023-04-26T19:01:14.324Z,7.25
2023-04-26T19:03:45.059Z,10.48
2023-04-26T19:06:17.559Z,8.32
2023-04-26T19:08:48.445Z,13.48
2023-04-26T19:11:21.430Z,9.45
2023-04-26T19:13:51.942Z,8.80
2023-04-26T19:16:22.489Z,6.32
2023-04-26T19:18:53.089Z,5.55
2023-04-26T19:21:23.741Z,8.90
2023-04-26T19:23:54.165Z,7.80
2023-04-26T19:26:27.352Z,5.80
2023-04-26T19:28:58.407Z,4.63
2023-04-26T19:31:29.916Z,7.30
2023-04-26T19:34:00.606Z,6.55
2023-04-26T19:36:31.698Z,9.77
2023-04-26T19:39:02.110Z,5.65
2023-04-26T19:41:35.151Z,5.75
2023-04-26T19:44:05.513Z,6.47
2023-04-26T19:46:37.129Z,8.77
2023-04-26T19:49:07.813Z,8.13
2023-04-26T19:51:38.318Z,10.68
2023-04-26T19:54:08.910Z,8.80
2023-04-26T19:56:41.971Z,15.90
2023-04-26T19:59:13.621Z,8.38
2023-04-26T20:01:44.350Z,8.10
2023-04-26T20:04:14.943Z,8.27
2023-04-26T20:06:45.662Z,7.65
2023-04-26T20:09:16.897Z,9.57
2023-04-26T20:11:50.136Z,7.40
2023-04-26T20:14:20.831Z,11.27
2023-04-26T20:16:51.906Z,9.77
2023-04-26T20:19:22.628Z,8.95
2023-04-26T20:21:53.205Z,11.50
2023-04-26T20:24:24.275Z,11.13
2023-04-26T20:26:58.177Z,9.25
2023-04-26T20:29:28.615Z,9.07
2023-04-26T20:32:00.097Z,11.20
2023-04-26T20:34:30.856Z,8.70
2023-04-26T20:37:01.339Z,16.63
2023-04-26T20:39:33.875Z,7.47
2023-04-26T20:42:07.460Z,15.25
2023-04-26T20:44:38.222Z,10.38
2023-04-26T20:47:09.003Z,12.98
2023-04-26T20:49:39.506Z,11.02
2023-04-26T20:52:10.260Z,14.75
2023-04-26T20:54:40.722Z,10.00
2023-04-26T20:57:13.776Z,11.68
2023-04-26T20:59:44.168Z,8.50
2023-04-26T21:02:15.048Z,13.63
2023-04-26T21:04:45.921Z,8.57
2023-04-26T21:07:16.865Z,9.05
2023-04-26T21:09:47.271Z,8.40
2023-04-26T21:12:20.527Z,6.22
2023-04-26T21:14:51.276Z,8.85
2023-04-26T21:17:21.965Z,14.77
2023-04-26T21:19:52.476Z,7.57
2023-04-26T21:22:22.921Z,9.15
2023-04-26T21:24:54.659Z,8.27
2023-04-26T21:27:27.881Z,8.40
2023-04-26T21:29:58.300Z,10.98
2023-04-26T21:32:28.786Z,16.58
2023-04-26T21:34:59.304Z,17.52
2023-04-26T21:37:29.813Z,8.07
2023-04-26T21:40:00.567Z,10.45
2023-04-26T21:42:33.854Z,11.95
2023-04-26T21:45:04.389Z,6.80
2023-04-26T21:47:34.982Z,8.18
2023-04-26T21:50:06.707Z,9.52
2023-04-26T21:52:37.222Z,11.65
2023-04-26T21:55:09.360Z,9.73
2023-04-26T21:57:42.657Z,7.53
2023-04-26T22:00:14.699Z,11.45
2023-04-26T22:02:45.374Z,10.38
2023-04-26T22:05:16.007Z,14.07
2023-04-26T22:07:46.599Z,10.68
2023-04-26T22:10:17.211Z,8.98
2023-04-26T22:12:50.197Z,9.07
2023-04-26T22:15:20.687Z,7.70
2023-04-26T22:17:51.386Z,10.75
2023-04-26T22:20:22.741Z,8.20
2023-04-26T22:22:53.972Z,12.00
2023-04-26T22:25:25.417Z,11.30
2023-04-26T22:27:58.446Z,10.93
2023-04-26T22:30:28.947Z,6.65
2023-04-26T22:33:00.272Z,8.13
2023-04-26T22:35:31.758Z,12.18
2023-04-26T22:38:02.160Z,9.27
2023-04-26T22:40:32.818Z,8.75
2023-04-26T22:43:06.237Z,13.55
2023-04-26T22:45:36.793Z,10.93
2023-04-26T22:48:07.760Z,10.10
2023-04-26T22:50:38.270Z,19.52
2023-04-26T22:53:08.621Z,10.13
2023-04-26T22:55:39.090Z,11.60
2023-04-26T22:58:12.106Z,7.82
2023-04-26T23:00:42.588Z,9.27
2023-04-26T23:03:13.178Z,12.75
2023-04-26T23:05:43.662Z,15.55
2023-04-26T23:08:14.307Z,11.13
2023-04-26T23:10:44.755Z,6.38
2023-04-26T23:13:17.717Z,13.45
2023-04-26T23:15:48.229Z,8.57
2023-04-26T23:18:18.718Z,9.07
2023-04-26T23:20:49.181Z,12.45
2023-04-26T23:23:19.712Z,8.38
2023-04-26T23:25:50.013Z,8.05
2023-04-26T23:28:23.157Z,13.55
2023-04-26T23:30:53.609Z,8.90
2023-04-26T23:33:24.276Z,8.45
2023-04-26T23:35:57.520Z,8.98
2023-04-26T23:38:28.182Z,8.93
2023-04-26T23:40:58.652Z,7.20
2023-04-26T23:43:31.739Z,6.70
2023-04-26T23:46:02.237Z,14.95
2023-04-26T23:48:32.874Z,8.82
2023-04-26T23:51:03.253Z,6.10
2023-04-26T23:53:33.935Z,9.55
2023-04-26T23:56:04.290Z,7.78
2023-04-26T23:58:37.371Z,11.27
